Time;durP1;ratioP1;P1;durP2;ratioP2;P2;SDS_P1;SDS_P2;PMS_P1;PMS_P2;Temp;Humidity;BMP_temperature;BMP_pressure;BME280_temperature;BME280_humidity;BME280_pressure;Samples;Min_cycle;Max_cycle;Signal;HPM_P1;HPM_P2
2022/11/21 00:01:42;;;;;;;26.93;21.10;;;-1.00;1.00;;;;;;6210266;28;20238;-54
2022/11/21 00:04:46;;;;;;;28.03;19.93;;;-0.80;1.00;;;;;;6209184;28;20478;-54
2022/11/21 00:07:49;;;;;;;29.87;19.83;;;-0.70;1.00;;;;;;6213054;28;20227;-54
2022/11/21 00:10:52;;;;;;;28.87;20.40;;;-0.70;1.00;;;;;;6218668;28;20253;-52
2022/11/21 00:13:55;;;;;;;28.80;20.87;;;-0.90;1.00;;;;;;6211347;28;20235;-52
2022/11/21 00:16:58;;;;;;;27.67;20.47;;;-0.80;1.00;;;;;;6205282;28;20626;-52
2022/11/21 00:20:02;;;;;;;25.17;19.43;;;-0.70;1.00;;;;;;6203393;28;20243;-53
2022/11/21 00:23:06;;;;;;;25.33;18.90;;;-0.80;1.00;;;;;;6212626;28;20308;-54
2022/11/21 00:26:10;;;;;;;26.00;20.13;;;-0.90;1.00;;;;;;6205819;28;20240;-55
2022/11/21 00:29:13;;;;;;;24.53;18.37;;;-0.90;1.00;;;;;;6202851;28;20239;-54
2022/11/21 00:32:16;;;;;;;27.80;20.37;;;-0.80;1.00;;;;;;6212751;28;20322;-53
2022/11/21 00:35:21;;;;;;;24.27;19.27;;;-0.90;1.00;;;;;;6211723;28;20243;-53
2022/11/21 00:38:24;;;;;;;28.07;20.83;;;-0.70;1.00;;;;;;6218717;28;20239;-54
2022/11/21 00:41:27;;;;;;;27.67;20.77;;;-0.70;1.00;;;;;;6212380;28;20475;-54
2022/11/21 00:44:29;;;;;;;24.93;19.17;;;-0.60;1.00;;;;;;6211458;28;20468;-54
2022/11/21 00:47:32;;;;;;;29.43;20.73;;;-0.80;1.00;;;;;;6205675;28;20255;-54
2022/11/21 00:50:37;;;;;;;24.90;19.20;;;-0.60;1.00;;;;;;6207639;28;20721;-54
2022/11/21 00:53:40;;;;;;;29.23;19.37;;;-0.70;1.00;;;;;;6210622;28;20607;-54
2022/11/21 00:56:43;;;;;;;25.60;19.43;;;-0.60;1.00;;;;;;6203231;28;20608;-54
2022/11/21 00:59:45;;;;;;;26.17;19.10;;;-0.70;1.00;;;;;;6208552;28;20835;-53
2022/11/21 01:02:48;;;;;;;25.77;20.07;;;-0.70;1.00;;;;;;6216550;28;20728;-54
2022/11/21 01:05:53;;;;;;;26.03;20.00;;;-0.40;1.00;;;;;;6208254;28;20235;-54
2022/11/21 01:08:56;;;;;;;29.83;20.93;;;-0.20;1.00;;;;;;6212518;28;20235;-54
2022/11/21 01:11:59;;;;;;;30.27;21.63;;;-0.30;1.00;;;;;;6209942;28;20235;-55
2022/11/21 01:15:02;;;;;;;35.47;22.67;;;-0.20;1.00;;;;;;6210105;28;20610;-53
2022/11/21 01:18:05;;;;;;;27.60;20.90;;;-0.20;1.00;;;;;;6200966;28;20250;-53
2022/11/21 01:21:14;;;;;;;31.80;22.37;;;-0.10;1.00;;;;;;6209487;28;20291;-54
2022/11/21 01:24:16;;;;;;;33.40;23.37;;;-0.40;1.00;;;;;;6225937;28;20235;-54
2022/11/21 01:27:19;;;;;;;29.80;21.27;;;-0.40;1.00;;;;;;6228915;28;20242;-52
2022/11/21 01:30:22;;;;;;;27.30;20.07;;;-0.50;1.00;;;;;;6244614;28;20450;-54
2022/11/21 01:33:25;;;;;;;28.90;21.07;;;-0.20;1.00;;;;;;6248370;28;20242;-53
2022/11/21 01:36:32;;;;;;;29.47;20.07;;;-0.10;1.00;;;;;;6236800;28;20245;-53
2022/11/21 01:39:34;;;;;;;30.60;21.63;;;-0.10;1.00;;;;;;6234608;28;20599;-53
2022/11/21 01:42:53;;;;;;;33.67;23.17;;;-0.10;1.00;;;;;;6227445;28;20222;-53
2022/11/21 01:45:58;;;;;;;29.03;21.57;;;0.00;1.00;;;;;;6233126;28;20608;-54
2022/11/21 01:49:04;;;;;;;26.63;19.93;;;-0.20;1.00;;;;;;6228626;28;20261;-53
2022/11/21 01:52:13;;;;;;;29.30;21.37;;;0.10;1.00;;;;;;6234027;28;20796;-52
2022/11/21 01:55:16;;;;;;;26.43;20.93;;;0.10;1.00;;;;;;6226758;28;20239;-55
2022/11/21 01:58:19;;;;;;;28.67;21.00;;;0.10;1.00;;;;;;6229192;28;20253;-54
2022/11/21 02:01:23;;;;;;;26.87;20.50;;;0.00;1.00;;;;;;6230670;28;20242;-53
2022/11/21 02:04:30;;;;;;;27.90;21.13;;;0.00;1.00;;;;;;6234140;28;20307;-54
2022/11/21 02:07:40;;;;;;;26.87;20.70;;;-0.10;1.00;;;;;;6224856;28;20512;-54
2022/11/21 02:10:49;;;;;;;26.80;21.03;;;0.00;1.00;;;;;;6235188;28;20313;-54
2022/11/21 02:13:53;;;;;;;25.47;20.03;;;0.00;1.00;;;;;;6235361;28;20389;-54
2022/11/21 02:17:00;;;;;;;27.23;20.20;;;-0.20;1.00;;;;;;6231668;28;20265;-53
2022/11/21 02:20:06;;;;;;;27.40;21.27;;;0.00;1.00;;;;;;6234777;28;20654;-54
2022/11/21 02:23:18;;;;;;;28.57;21.33;;;-0.10;1.00;;;;;;6230043;28;20235;-54
2022/11/21 02:26:22;;;;;;;27.87;21.17;;;0.00;1.00;;;;;;6230552;28;20644;-54
2022/11/21 02:29:25;;;;;;;22.37;18.97;;;0.00;1.00;;;;;;6233835;28;20238;-54
2022/11/21 02:32:34;;;;;;;27.77;21.23;;;-0.10;1.00;;;;;;6237241;28;20390;-55
2022/11/21 02:35:37;;;;;;;27.20;20.63;;;-0.30;1.00;;;;;;6227584;28;20233;-55
2022/11/21 02:38:40;;;;;;;26.37;19.77;;;0.00;1.00;;;;;;6229749;28;20410;-56
2022/11/21 02:41:52;;;;;;;27.57;21.57;;;-0.20;1.00;;;;;;6240256;28;20892;-52
2022/11/21 02:45:01;;;;;;;28.57;20.20;;;0.00;1.00;;;;;;6239860;28;20237;-53
2022/11/21 02:48:05;;;;;;;25.77;19.37;;;0.00;1.00;;;;;;6228343;28;20615;-54
2022/11/21 02:51:08;;;;;;;26.07;18.87;;;-0.10;1.00;;;;;;6239548;28;20246;-54
2022/11/21 02:54:11;;;;;;;23.50;19.13;;;-0.20;1.00;;;;;;6239707;28;20873;-54
2022/11/21 02:57:15;;;;;;;25.73;19.53;;;0.00;1.00;;;;;;6236130;28;20239;-54
2022/11/21 03:00:19;;;;;;;25.07;19.50;;;-0.10;1.00;;;;;;6209813;28;20239;-53
2022/11/21 03:03:22;;;;;;;26.83;20.40;;;0.10;1.00;;;;;;6214780;28;20242;-54
2022/11/21 03:06:25;;;;;;;25.43;19.10;;;-0.10;1.00;;;;;;6208960;28;20706;-53
2022/11/21 03:09:28;;;;;;;27.10;19.90;;;-0.20;1.00;;;;;;6205747;28;20236;-53
2022/11/21 03:12:32;;;;;;;22.93;19.10;;;0.00;1.00;;;;;;6208058;28;20303;-54
2022/11/21 03:15:35;;;;;;;25.40;19.47;;;0.00;1.00;;;;;;6213864;28;20402;-54
2022/11/21 03:18:38;;;;;;;25.40;19.47;;;0.00;1.00;;;;;;6220679;28;20245;-53
2022/11/21 03:21:41;;;;;;;26.30;20.13;;;0.00;1.00;;;;;;6214835;28;20339;-54
2022/11/21 03:24:44;;;;;;;25.37;19.57;;;0.00;1.00;;;;;;6211348;28;20247;-53
2022/11/21 03:27:51;;;;;;;26.73;20.77;;;-0.10;1.00;;;;;;6216627;28;20604;-54
2022/11/21 03:30:53;;;;;;;26.17;19.93;;;0.10;1.00;;;;;;6202977;28;20748;-54
2022/11/21 03:33:56;;;;;;;26.53;20.20;;;-0.20;1.00;;;;;;6208281;28;20240;-54
2022/11/21 03:36:59;;;;;;;23.80;18.77;;;0.10;1.00;;;;;;6214041;28;20262;-53
2022/11/21 03:40:03;;;;;;;26.40;19.90;;;0.10;1.00;;;;;;6219638;28;20239;-53
2022/11/21 03:43:08;;;;;;;28.10;20.13;;;0.00;1.00;;;;;;6213965;28;20247;-54
2022/11/21 03:46:11;;;;;;;26.83;20.07;;;-0.10;1.00;;;;;;6206206;28;20287;-54
2022/11/21 03:49:15;;;;;;;24.93;19.83;;;0.20;1.00;;;;;;6213940;28;20242;-54
2022/11/21 03:52:18;;;;;;;22.20;18.87;;;0.00;1.00;;;;;;6209658;28;20238;-54
2022/11/21 03:55:21;;;;;;;25.60;20.27;;;0.00;1.00;;;;;;6197673;28;20591;-55
2022/11/21 03:58:25;;;;;;;26.83;20.47;;;-0.10;1.00;;;;;;6213403;28;20243;-54
2022/11/21 04:01:29;;;;;;;26.63;20.47;;;-0.10;1.00;;;;;;6213015;28;20258;-61
2022/11/21 04:04:38;;;;;;;30.37;21.43;;;0.10;1.00;;;;;;6215643;28;20227;-53
2022/11/21 04:07:41;;;;;;;29.67;22.20;;;0.00;1.00;;;;;;6215223;28;20427;-54
2022/11/21 04:10:47;;;;;;;30.10;22.80;;;0.00;1.00;;;;;;6216011;28;20232;-54
2022/11/21 04:13:51;;;;;;;30.20;22.03;;;-0.10;1.00;;;;;;6215532;28;20238;-53
2022/11/21 04:16:54;;;;;;;31.07;22.07;;;0.00;1.00;;;;;;6205281;28;20387;-53
2022/11/21 04:19:57;;;;;;;32.47;22.50;;;0.00;1.00;;;;;;6208579;28;20239;-54
2022/11/21 04:23:00;;;;;;;29.90;23.27;;;0.00;1.00;;;;;;6213337;28;20240;-54
2022/11/21 04:26:03;;;;;;;31.73;23.23;;;0.10;1.00;;;;;;6207861;28;20243;-53
2022/11/21 04:29:07;;;;;;;29.60;21.97;;;0.00;1.00;;;;;;6209977;28;20231;-59
2022/11/21 04:32:10;;;;;;;30.00;22.93;;;0.00;1.00;;;;;;6194719;28;20232;-54
2022/11/21 04:35:13;;;;;;;28.77;22.03;;;-0.20;1.00;;;;;;6226329;28;20255;-54
2022/11/21 04:38:16;;;;;;;31.30;21.57;;;0.00;1.00;;;;;;6199721;28;20250;-55
2022/11/21 04:41:19;;;;;;;30.43;21.37;;;-0.10;1.00;;;;;;6207817;28;20235;-54
2022/11/21 04:44:24;;;;;;;27.10;20.87;;;-0.20;1.00;;;;;;6221293;28;20249;-54
2022/11/21 04:47:27;;;;;;;28.67;21.10;;;-0.10;1.00;;;;;;6212570;28;20242;-54
2022/11/21 04:50:30;;;;;;;28.40;21.40;;;0.00;1.00;;;;;;6204753;28;20235;-54
2022/11/21 04:53:33;;;;;;;29.37;21.17;;;-0.30;1.00;;;;;;6210722;28;20242;-54
2022/11/21 04:56:43;;;;;;;29.00;22.23;;;0.10;1.00;;;;;;6206485;28;20243;-55
2022/11/21 04:59:47;;;;;;;29.23;21.83;;;0.10;1.00;;;;;;6219949;28;20227;-52
2022/11/21 05:02:50;;;;;;;28.47;22.77;;;-0.10;1.00;;;;;;6211568;28;20228;-53
2022/11/21 05:05:53;;;;;;;29.50;21.93;;;0.10;1.00;;;;;;6211000;28;20239;-52
2022/11/21 05:08:56;;;;;;;27.00;19.13;;;0.10;1.00;;;;;;6211791;28;20239;-53
2022/11/21 05:15:18;;;;;;;31.40;21.87;;;0.10;1.00;;;;;;6182674;28;20270;-54
2022/11/21 05:18:26;;;;;;;28.47;20.93;;;0.10;1.00;;;;;;6202125;28;20231;-55
2022/11/21 05:21:29;;;;;;;28.33;21.10;;;0.20;1.00;;;;;;6214787;28;20627;-53
2022/11/21 05:24:32;;;;;;;27.33;21.37;;;0.20;1.00;;;;;;6200218;28;20239;-53
2022/11/21 05:27:35;;;;;;;32.83;22.50;;;0.20;1.00;;;;;;6196229;28;20666;-55
2022/11/21 05:30:40;;;;;;;31.30;22.93;;;0.10;1.00;;;;;;6205296;28;20267;-54
2022/11/21 05:33:43;;;;;;;28.10;20.83;;;0.20;1.00;;;;;;6203100;28;20239;-54
2022/11/21 05:36:46;;;;;;;28.03;20.23;;;0.20;1.00;;;;;;6197987;28;20470;-54
2022/11/21 05:39:49;;;;;;;28.30;23.03;;;0.30;1.00;;;;;;6208142;28;20764;-53
2022/11/21 05:46:15;;;;;;;27.97;20.90;;;0.30;1.00;;;;;;6212498;28;20240;-55
2022/11/21 05:49:18;;;;;;;33.03;23.80;;;0.40;1.00;;;;;;6224586;28;20579;-52
2022/11/21 05:52:21;;;;;;;31.03;22.63;;;0.30;1.00;;;;;;6237254;28;20240;-51
2022/11/21 05:55:24;;;;;;;31.60;22.43;;;0.30;1.00;;;;;;6242719;28;20233;-53
2022/11/21 05:58:28;;;;;;;27.53;21.57;;;0.30;1.00;;;;;;6229805;28;20239;-53
2022/11/21 06:04:53;;;;;;;30.13;22.20;;;0.30;1.00;;;;;;6233293;28;20235;-54
2022/11/21 06:07:56;;;;;;;30.17;22.97;;;0.50;1.00;;;;;;6226764;28;20246;-54
2022/11/21 06:10:59;;;;;;;31.33;24.23;;;0.50;1.00;;;;;;6240545;28;20230;-54
2022/11/21 06:14:01;;;;;;;29.97;23.67;;;0.30;1.00;;;;;;6232197;28;20243;-54
2022/11/21 06:17:06;;;;;;;34.77;24.50;;;0.40;1.00;;;;;;6235343;28;20261;-54
2022/11/21 06:20:10;;;;;;;29.97;22.00;;;0.40;1.00;;;;;;6232293;28;21332;-54
2022/11/21 06:23:13;;;;;;;31.90;23.30;;;0.50;1.00;;;;;;6225328;28;20597;-52
2022/11/21 06:26:19;;;;;;;32.03;22.83;;;0.50;1.00;;;;;;6207413;28;20405;-52
2022/11/21 06:29:23;;;;;;;28.73;22.33;;;0.50;1.00;;;;;;6207705;28;20242;-54
2022/11/21 06:32:27;;;;;;;33.80;25.20;;;0.40;1.00;;;;;;6209877;28;20258;-54
2022/11/21 06:35:30;;;;;;;32.50;23.27;;;0.60;1.00;;;;;;6207524;28;20539;-53
2022/11/21 06:38:34;;;;;;;34.17;25.10;;;0.50;1.00;;;;;;6205309;28;20255;-54
2022/11/21 06:41:37;;;;;;;30.50;22.77;;;0.40;1.00;;;;;;6212574;28;20242;-55
2022/11/21 06:44:40;;;;;;;34.03;24.60;;;0.50;1.00;;;;;;6210723;28;20411;-54
2022/11/21 06:47:44;;;;;;;30.37;23.23;;;0.50;1.00;;;;;;6208448;28;20234;-54
2022/11/21 06:50:47;;;;;;;32.37;23.57;;;0.60;1.00;;;;;;6210616;28;20232;-55
2022/11/21 06:53:54;;;;;;;33.17;24.50;;;0.50;1.00;;;;;;6208824;28;20396;-55
2022/11/21 06:56:58;;;;;;;31.83;24.23;;;0.50;1.00;;;;;;6206911;28;20232;-54
2022/11/21 07:00:01;;;;;;;29.07;22.67;;;0.50;1.00;;;;;;6208826;28;20254;-53
2022/11/21 07:03:05;;;;;;;34.47;22.47;;;0.80;1.00;;;;;;6209795;28;20231;-54
2022/11/21 07:06:08;;;;;;;31.70;23.73;;;0.60;1.00;;;;;;6207300;28;20610;-53
2022/11/21 07:09:11;;;;;;;34.60;23.80;;;0.50;1.00;;;;;;6208065;28;20239;-54
2022/11/21 07:16:00;;;;;;;32.07;23.47;;;0.60;1.00;;;;;;6201561;28;20239;-53
2022/11/21 07:19:05;;;;;;;34.13;23.67;;;0.50;1.00;;;;;;6204232;28;20242;-52
2022/11/21 07:22:08;;;;;;;29.63;22.27;;;0.50;1.00;;;;;;6216632;28;20239;-53
2022/11/21 07:25:11;;;;;;;29.13;22.50;;;0.40;1.00;;;;;;6209660;28;20235;-54
2022/11/21 07:28:14;;;;;;;32.33;24.03;;;0.40;1.00;;;;;;6211142;28;20618;-54
2022/11/21 07:31:17;;;;;;;30.17;22.90;;;0.40;1.00;;;;;;6213475;28;20251;-60
2022/11/21 07:34:21;;;;;;;30.03;22.87;;;0.50;1.00;;;;;;6212734;28;20244;-54
2022/11/21 07:37:24;;;;;;;33.37;24.50;;;0.50;1.00;;;;;;6210150;28;20993;-55
2022/11/21 07:40:28;;;;;;;33.20;24.23;;;0.40;1.00;;;;;;6214542;28;20470;-54
2022/11/21 07:43:31;;;;;;;32.23;24.53;;;0.40;1.00;;;;;;6211219;28;20342;-53
2022/11/21 07:46:34;;;;;;;35.10;24.40;;;0.50;1.00;;;;;;6206127;28;20405;-54
2022/11/21 07:49:38;;;;;;;33.60;23.80;;;0.60;1.00;;;;;;6214441;28;20227;-54
2022/11/21 07:52:41;;;;;;;32.83;23.30;;;0.20;1.00;;;;;;6203953;28;20490;-54
2022/11/21 07:55:44;;;;;;;33.50;24.00;;;0.50;1.00;;;;;;6211712;28;20243;-54
2022/11/21 07:58:47;;;;;;;37.33;26.57;;;0.70;1.00;;;;;;6207917;28;20246;-54
2022/11/21 08:01:51;;;;;;;34.20;26.47;;;0.50;1.00;;;;;;6216997;28;20487;-53
2022/11/21 08:04:55;;;;;;;35.87;26.67;;;0.50;1.00;;;;;;6211968;28;20227;-52
2022/11/21 08:07:58;;;;;;;39.93;27.90;;;0.60;1.00;;;;;;6210430;28;20243;-53
2022/11/21 08:11:04;;;;;;;36.23;26.70;;;0.60;1.00;;;;;;6211381;28;20379;-54
2022/11/21 08:14:07;;;;;;;36.70;26.63;;;1.00;1.00;;;;;;6210727;28;20243;-53
2022/11/21 08:17:10;;;;;;;39.87;28.13;;;0.60;1.00;;;;;;6200363;28;20315;-56
2022/11/21 08:20:16;;;;;;;42.33;29.07;;;0.70;1.00;;;;;;6213905;28;20728;-54
2022/11/21 08:23:18;;;;;;;47.10;30.27;;;0.70;1.00;;;;;;6211423;28;20243;-54
2022/11/21 08:26:21;;;;;;;42.60;29.73;;;0.70;1.00;;;;;;6207960;28;20239;-53
2022/11/21 08:29:25;;;;;;;45.07;30.23;;;0.90;1.00;;;;;;6210388;28;20239;-54
2022/11/21 08:32:29;;;;;;;41.90;29.10;;;1.00;1.00;;;;;;6208833;28;20232;-55
2022/11/21 08:35:36;;;;;;;49.13;29.90;;;0.80;1.00;;;;;;6201489;28;20227;-53
2022/11/21 08:38:39;;;;;;;43.60;30.20;;;0.60;1.00;;;;;;6207119;28;20764;-54
2022/11/21 08:45:02;;;;;;;35.13;25.87;;;0.60;1.00;;;;;;6205661;28;20227;-54
2022/11/21 08:48:11;;;;;;;34.73;23.57;;;0.40;1.00;;;;;;6214816;28;20246;-53
2022/11/21 08:51:15;;;;;;;35.33;25.83;;;0.30;1.00;;;;;;6205202;28;20232;-54
2022/11/21 08:54:19;;;;;;;33.23;24.70;;;0.30;1.00;;;;;;6205411;28;20235;-54
2022/11/21 08:57:21;;;;;;;36.23;24.10;;;0.20;1.00;;;;;;6204973;28;20246;-54
2022/11/21 09:00:25;;;;;;;36.77;25.07;;;0.30;1.00;;;;;;6211301;28;20235;-54
2022/11/21 09:03:28;;;;;;;30.83;21.60;;;0.40;1.00;;;;;;6210554;28;20354;-54
2022/11/21 09:06:35;;;;;;;30.63;22.27;;;0.60;1.00;;;;;;6209509;28;20598;-54
2022/11/21 09:09:38;;;;;;;25.30;19.40;;;0.30;1.00;;;;;;6194886;28;20237;-52
2022/11/21 09:12:41;;;;;;;33.33;20.83;;;0.20;1.00;;;;;;6207056;28;20238;-52
2022/11/21 09:19:04;;;;;;;30.33;20.23;;;0.10;1.00;;;;;;6208968;28;20828;-54
2022/11/21 09:22:09;;;;;;;32.70;21.47;;;0.00;1.00;;;;;;6209364;28;20235;-54
2022/11/21 09:25:11;;;;;;;39.77;23.17;;;0.20;1.00;;;;;;6202163;28;20379;-52
2022/11/21 09:28:14;;;;;;;33.83;22.40;;;0.00;1.00;;;;;;6205683;28;20247;-54
2022/11/21 09:31:17;;;;;;;34.87;22.17;;;-0.10;1.00;;;;;;6208152;28;20240;-54
2022/11/21 09:34:20;;;;;;;34.07;23.60;;;0.10;1.00;;;;;;6206257;28;20313;-54
2022/11/21 09:37:25;;;;;;;38.60;23.70;;;0.10;1.00;;;;;;6204432;28;20310;-54
2022/11/21 09:40:30;;;;;;;36.63;23.77;;;0.00;1.00;;;;;;6210130;28;20227;-54
2022/11/21 09:43:45;;;;;;;38.30;23.83;;;-0.10;1.00;;;;;;6206207;28;20231;-52
2022/11/21 09:46:50;;;;;;;39.93;23.50;;;-0.10;1.00;;;;;;6205840;28;20269;-53
2022/11/21 09:49:58;;;;;;;33.50;22.30;;;-0.10;1.00;;;;;;6211298;28;20242;-54
2022/11/21 09:53:06;;;;;;;37.20;22.37;;;-0.10;1.00;;;;;;6209256;28;20748;-54
2022/11/21 09:56:13;;;;;;;34.77;23.37;;;0.10;1.00;;;;;;6207972;28;20236;-53
2022/11/21 09:59:29;;;;;;;36.93;22.83;;;-0.10;1.00;;;;;;6218291;28;20237;-54
2022/11/21 10:02:33;;;;;;;31.73;21.73;;;-0.20;1.00;;;;;;6208401;28;20231;-54
2022/11/21 10:05:41;;;;;;;32.50;21.73;;;-0.20;1.00;;;;;;6204712;28;21250;-53
2022/11/21 10:08:55;;;;;;;31.07;22.33;;;0.20;1.00;;;;;;6205155;28;20254;-54
2022/11/21 10:15:38;;;;;;;29.33;20.23;;;0.10;1.00;;;;;;6214074;28;20697;-55
2022/11/21 10:19:08;;;;;;;30.47;21.07;;;0.00;1.00;;;;;;6213788;28;20246;-54
2022/11/21 10:22:39;;;;;;;29.37;21.60;;;-0.10;1.00;;;;;;6230178;28;20400;-53
2022/11/21 10:25:49;;;;;;;29.07;20.40;;;0.00;1.00;;;;;;6230934;28;20703;-54
2022/11/21 10:28:56;;;;;;;32.87;20.47;;;0.00;1.00;;;;;;6234158;28;20257;-52
2022/11/21 10:32:05;;;;;;;29.67;19.90;;;0.00;1.00;;;;;;6232195;28;20636;-54
2022/11/21 10:35:15;;;;;;;30.20;21.57;;;-0.10;1.00;;;;;;6233885;28;20239;-52
2022/11/21 10:38:21;;;;;;;27.97;20.00;;;-0.50;1.00;;;;;;6229717;28;20610;-54
2022/11/21 10:41:37;;;;;;;30.90;20.60;;;-0.50;1.00;;;;;;6227630;28;20408;-54
2022/11/21 10:48:00;;;;;;;39.90;24.43;;;-0.60;1.00;;;;;;6237130;28;20234;-54
2022/11/21 10:51:25;;;;;;;38.93;22.77;;;-0.60;1.00;;;;;;6232131;28;20242;-54
2022/11/21 10:54:33;;;;;;;33.73;23.03;;;-0.60;1.00;;;;;;6230788;28;20227;-54
2022/11/21 10:57:45;;;;;;;34.43;23.57;;;-0.60;1.00;;;;;;6236476;28;20307;-54
2022/11/21 11:00:57;;;;;;;30.23;22.50;;;-0.50;1.00;;;;;;6227466;28;20235;-55
2022/11/21 11:04:20;;;;;;;29.10;20.67;;;-0.10;1.00;;;;;;6224066;28;20477;-54
2022/11/21 11:07:29;;;;;;;29.87;20.90;;;-0.10;1.00;;;;;;6242498;28;20257;-54
2022/11/21 11:10:34;;;;;;;27.90;19.83;;;-0.30;1.00;;;;;;6225092;28;20223;-53
2022/11/21 11:13:55;;;;;;;24.40;18.50;;;-0.40;1.00;;;;;;6214237;28;20243;-54
2022/11/21 11:16:59;;;;;;;24.57;17.90;;;-0.10;1.00;;;;;;6217961;28;20243;-53
2022/11/21 11:20:05;;;;;;;29.80;19.30;;;-0.40;1.00;;;;;;6216455;28;20239;-58
2022/11/21 11:23:26;;;;;;;24.60;18.60;;;-0.10;1.00;;;;;;6216165;28;20236;-54
2022/11/21 11:26:31;;;;;;;27.73;19.83;;;0.00;1.00;;;;;;6241779;28;20814;-54
2022/11/21 11:29:50;;;;;;;28.73;19.43;;;0.00;1.00;;;;;;6221656;28;20252;-54
2022/11/21 11:32:55;;;;;;;27.33;18.93;;;-0.10;1.00;;;;;;6234346;28;20485;-53
2022/11/21 11:36:14;;;;;;;27.40;19.30;;;0.00;1.00;;;;;;6239687;28;20237;-53
2022/11/21 11:39:24;;;;;;;25.43;18.47;;;0.00;1.00;;;;;;6243511;28;20268;-56
2022/11/21 11:50:13;;;;;;;24.33;17.83;;;-0.50;1.00;;;;;;6239972;28;20513;-53
2022/11/21 11:53:19;;;;;;;25.13;18.80;;;-0.30;1.00;;;;;;6213307;28;20235;-54
2022/11/21 11:56:27;;;;;;;25.10;17.50;;;-0.20;1.00;;;;;;6219718;28;20251;-53
2022/11/21 11:59:37;;;;;;;25.63;17.43;;;-0.40;1.00;;;;;;6216154;28;20239;-54
2022/11/21 12:02:51;;;;;;;24.13;18.57;;;-0.20;1.00;;;;;;6214703;28;20701;-52
2022/11/21 12:06:00;;;;;;;24.53;17.60;;;-0.30;1.00;;;;;;6208914;28;20394;-54
2022/11/21 12:09:20;;;;;;;22.40;18.27;;;-0.10;1.00;;;;;;6217840;28;20288;-55
2022/11/21 12:12:32;;;;;;;21.30;16.83;;;0.10;1.00;;;;;;6241883;28;20238;-54
2022/11/21 12:15:49;;;;;;;20.83;17.80;;;0.10;1.00;;;;;;6239917;28;20242;-53
2022/11/21 12:19:00;;;;;;;20.93;17.17;;;-0.10;1.00;;;;;;6237617;28;20223;-52
2022/11/21 12:22:05;;;;;;;18.60;15.90;;;0.10;1.00;;;;;;6243584;28;20238;-54
2022/11/21 12:25:11;;;;;;;21.90;15.57;;;0.20;1.00;;;;;;6228787;28;20251;-55
2022/11/21 12:28:21;;;;;;;16.57;14.63;;;0.10;1.00;;;;;;6213942;28;20256;-53
2022/11/21 12:31:31;;;;;;;20.53;15.60;;;0.30;1.00;;;;;;6207269;28;20283;-53
2022/11/21 12:34:52;;;;;;;19.60;14.23;;;0.30;1.00;;;;;;6210408;28;20224;-52
2022/11/21 12:38:06;;;;;;;14.93;13.40;;;0.30;1.00;;;;;;6210589;28;20264;-54
2022/11/21 12:45:01;;;;;;;15.77;14.27;;;0.20;1.00;;;;;;6235955;28;20238;-56
2022/11/21 12:55:28;;;;;;;15.20;13.60;;;-0.10;1.00;;;;;;6215928;28;20708;-54
2022/11/21 12:58:41;;;;;;;16.17;13.70;;;-0.10;1.00;;;;;;6210169;28;22487;-54
2022/11/21 13:01:52;;;;;;;15.60;13.57;;;0.00;1.00;;;;;;6211031;28;20247;-54
2022/11/21 13:04:58;;;;;;;16.90;14.90;;;-0.10;1.00;;;;;;6211195;28;20235;-53
2022/11/21 13:08:05;;;;;;;17.53;15.13;;;0.00;1.00;;;;;;6210443;28;20254;-54
2022/11/21 13:14:44;;;;;;;15.83;14.17;;;-0.10;1.00;;;;;;6205993;28;20230;-54
2022/11/21 13:17:51;;;;;;;17.00;14.70;;;0.00;1.00;;;;;;6213358;28;20247;-53
2022/11/21 13:20:54;;;;;;;18.60;15.23;;;-0.10;1.00;;;;;;6208758;28;20239;-53
2022/11/21 13:23:59;;;;;;;19.20;16.07;;;0.10;1.00;;;;;;6209810;28;20259;-55
2022/11/21 13:27:02;;;;;;;17.83;15.60;;;0.10;1.00;;;;;;6210941;28;20252;-53
2022/11/21 13:30:24;;;;;;;19.17;16.07;;;0.00;1.00;;;;;;6208329;28;20240;-54
2022/11/21 13:33:48;;;;;;;18.20;15.40;;;0.30;1.00;;;;;;6207732;28;20239;-54
2022/11/21 13:36:51;;;;;;;20.60;16.47;;;0.10;1.00;;;;;;6205889;28;20399;-53
2022/11/21 13:40:33;;;;;;;25.37;17.83;;;0.00;1.00;;;;;;6212799;28;20230;-55
2022/11/21 13:43:37;;;;;;;20.63;17.23;;;-0.10;1.00;;;;;;6215216;28;20327;-54
2022/11/21 13:47:01;;;;;;;22.60;17.27;;;-0.30;1.00;;;;;;6207570;28;20239;-54
2022/11/21 13:50:14;;;;;;;23.83;18.10;;;-0.20;1.00;;;;;;6207414;28;20235;-53
2022/11/21 13:53:38;;;;;;;23.20;17.87;;;-0.40;1.00;;;;;;6206143;28;20726;-54
2022/11/21 13:56:55;;;;;;;21.87;16.80;;;-0.40;1.00;;;;;;6228101;28;20238;-55
2022/11/21 14:00:29;;;;;;;25.07;17.30;;;0.10;1.00;;;;;;6228210;28;20596;-54
2022/11/21 14:04:08;;;;;;;19.47;17.10;;;-0.40;1.00;;;;;;6212090;28;20226;-51
2022/11/21 14:07:23;;;;;;;21.57;16.90;;;-0.10;1.00;;;;;;6238418;28;20238;-54
2022/11/21 14:10:33;;;;;;;23.50;18.40;;;-0.10;1.00;;;;;;6234473;28;20238;-53
2022/11/21 14:13:38;;;;;;;21.07;17.70;;;-0.40;1.00;;;;;;6239096;28;20626;-54
2022/11/21 14:16:49;;;;;;;19.10;17.17;;;-0.10;1.00;;;;;;6232689;28;20231;-54
2022/11/21 14:19:56;;;;;;;22.43;17.30;;;-0.40;1.00;;;;;;6232015;28;20231;-54
2022/11/21 14:23:02;;;;;;;23.10;18.63;;;-0.10;1.00;;;;;;6231210;28;20490;-54
2022/11/21 14:26:11;;;;;;;22.03;18.27;;;-0.10;1.00;;;;;;6234088;28;20376;-54
2022/11/21 14:29:17;;;;;;;18.93;16.80;;;-0.30;1.00;;;;;;6227761;28;20245;-54
2022/11/21 14:32:27;;;;;;;23.13;17.80;;;-0.20;1.00;;;;;;6234262;28;20708;-54
2022/11/21 14:35:30;;;;;;;20.43;17.53;;;0.00;1.00;;;;;;6230327;28;20237;-53
2022/11/21 14:38:40;;;;;;;23.73;19.13;;;-0.10;1.00;;;;;;6225801;28;20708;-54
2022/11/21 14:41:48;;;;;;;19.17;17.07;;;-0.20;1.00;;;;;;6228743;28;20771;-54
2022/11/21 14:45:06;;;;;;;23.10;17.27;;;-0.30;1.00;;;;;;6233297;28;20238;-53
2022/11/21 14:48:13;;;;;;;25.67;20.00;;;0.00;1.00;;;;;;6235406;28;20238;-53
2022/11/21 14:51:18;;;;;;;22.37;18.20;;;0.00;1.00;;;;;;6242668;28;20241;-54
2022/11/21 14:54:24;;;;;;;24.23;19.33;;;-0.30;1.00;;;;;;6232260;28;20759;-54
2022/11/21 14:57:30;;;;;;;25.30;20.23;;;-0.10;1.00;;;;;;6230516;28;20939;-54
2022/11/21 15:00:33;;;;;;;28.60;22.00;;;-0.20;1.00;;;;;;6226434;28;20729;-54
2022/11/21 15:04:00;;;;;;;27.97;20.13;;;-0.10;1.00;;;;;;6239312;28;20238;-53
2022/11/21 15:07:03;;;;;;;24.93;20.67;;;0.00;1.00;;;;;;6231042;28;20240;-53
2022/11/21 15:10:09;;;;;;;25.20;20.83;;;-0.20;1.00;;;;;;6236126;28;20242;-53
2022/11/21 15:13:34;;;;;;;23.33;19.63;;;-0.10;1.00;;;;;;6233111;28;20243;-53
2022/11/21 15:17:00;;;;;;;24.63;20.83;;;0.00;1.00;;;;;;6210616;28;20246;-52
2022/11/21 15:20:19;;;;;;;24.73;20.53;;;-0.10;1.00;;;;;;6214302;28;20257;-54
2022/11/21 15:23:30;;;;;;;27.30;20.50;;;-0.20;1.00;;;;;;6231564;28;20242;-54
2022/11/21 15:26:34;;;;;;;27.97;21.17;;;-0.30;1.00;;;;;;6228929;28;20241;-54
2022/11/21 15:29:37;;;;;;;29.00;21.23;;;-0.10;1.00;;;;;;6226568;28;20235;-52
2022/11/21 15:32:59;;;;;;;26.20;20.43;;;-0.10;1.00;;;;;;6231274;28;20234;-54
2022/11/21 15:36:13;;;;;;;24.97;20.97;;;-0.40;1.00;;;;;;6232077;28;20238;-55
2022/11/21 15:39:22;;;;;;;29.60;21.97;;;-0.10;1.00;;;;;;6229855;28;20740;-54
2022/11/21 15:42:37;;;;;;;28.33;21.70;;;-0.10;1.00;;;;;;6233339;28;20238;-54
2022/11/21 15:45:41;;;;;;;31.07;21.43;;;-0.40;1.00;;;;;;6239112;28;20500;-55
2022/11/21 15:48:48;;;;;;;29.40;21.30;;;-0.50;1.00;;;;;;6236140;28;20246;-54
2022/11/21 15:51:52;;;;;;;30.80;21.63;;;-0.40;1.00;;;;;;6226288;28;20611;-54
2022/11/21 15:55:17;;;;;;;28.47;22.60;;;-0.40;1.00;;;;;;6218411;28;20257;-53
2022/11/21 15:58:19;;;;;;;27.20;21.43;;;-0.40;1.00;;;;;;6217050;28;20368;-53
2022/11/21 16:01:24;;;;;;;32.00;23.63;;;-0.40;1.00;;;;;;6221918;28;20235;-57
2022/11/21 16:04:27;;;;;;;30.43;23.43;;;-0.40;1.00;;;;;;6224479;28;20239;-56
2022/11/21 16:07:31;;;;;;;27.93;21.07;;;-0.50;1.00;;;;;;6231984;28;20246;-52
2022/11/21 16:10:35;;;;;;;26.47;20.40;;;-0.20;1.00;;;;;;6240977;28;20245;-54
2022/11/21 16:13:38;;;;;;;27.00;20.53;;;-0.50;1.00;;;;;;6236917;28;20230;-53
2022/11/21 16:16:43;;;;;;;25.53;20.33;;;-0.30;1.00;;;;;;6241776;28;20646;-56
2022/11/21 16:19:46;;;;;;;26.73;20.73;;;-0.60;1.00;;;;;;6238225;28;20604;-54
2022/11/21 16:22:50;;;;;;;23.83;19.03;;;-0.20;1.00;;;;;;6234035;28;20310;-54
2022/11/21 16:25:54;;;;;;;25.93;20.13;;;-0.20;1.00;;;;;;6237124;28;20359;-54
2022/11/21 16:28:57;;;;;;;25.73;20.93;;;-0.40;1.00;;;;;;6234234;28;20230;-54
2022/11/21 16:32:00;;;;;;;24.13;19.40;;;-0.20;1.00;;;;;;6234541;28;20430;-53
2022/11/21 16:35:04;;;;;;;25.13;19.70;;;-0.40;1.00;;;;;;6236497;28;20242;-54
2022/11/21 16:38:10;;;;;;;24.60;19.53;;;-0.40;1.00;;;;;;6239178;28;20315;-54
2022/11/21 16:41:13;;;;;;;27.60;20.57;;;-0.30;1.00;;;;;;6237279;28;20705;-54
2022/11/21 16:44:16;;;;;;;26.00;19.77;;;-0.30;1.00;;;;;;6236254;28;20235;-53
2022/11/21 16:47:19;;;;;;;23.20;19.13;;;-0.10;1.00;;;;;;6235886;28;20586;-54
2022/11/21 16:50:22;;;;;;;24.90;19.80;;;-0.40;1.00;;;;;;6236165;28;20245;-54
2022/11/21 16:53:30;;;;;;;25.00;20.53;;;-0.40;1.00;;;;;;6244124;28;20264;-53
2022/11/21 16:56:33;;;;;;;26.90;20.80;;;-0.10;1.00;;;;;;6238136;28;20239;-52